Time;durP1;ratioP1;P1;durP2;ratioP2;P2;SDS_P1;SDS_P2;PMS_P1;PMS_P2;Temp;Humidity;BMP_temperature;BMP_pressure;BME280_temperature;BME280_humidity;BME280_pressure;Samples;Min_cycle;Max_cycle;Signal;HPM_P1;HPM_P2
2021/06/26 00:01:45;;;;;;;25.20;5.65;;;;;;;30.63;48.14;101003.75;144994;584;4572;-83
2021/06/26 00:04:14;;;;;;;13.88;4.75;;;;;;;30.65;47.41;101017.94;144994;617;4572;-86
2021/06/26 00:06:40;;;;;;;20.92;5.15;;;;;;;30.63;47.49;101010.94;144992;617;6002;-86
2021/06/26 00:09:07;;;;;;;20.48;4.90;;;;;;;30.63;46.96;101011.78;144992;633;6002;-85
2021/06/26 00:11:33;;;;;;;18.65;5.15;;;;;;;30.65;47.14;101012.56;144992;566;6002;-85
2021/06/26 00:13:59;;;;;;;19.40;5.37;;;;;;;30.63;46.58;101008.25;144991;621;6002;-85
2021/06/26 00:16:26;;;;;;;20.88;5.22;;;;;;;30.63;46.75;101011.78;144992;597;6002;-85
2021/06/26 00:18:52;;;;;;;16.27;4.50;;;;;;;30.62;47.16;101009.19;144992;636;6002;-85
2021/06/26 00:21:19;;;;;;;18.67;5.20;;;;;;;30.62;47.13;100998.47;144992;668;6002;-85
2021/06/26 00:23:45;;;;;;;15.93;4.62;;;;;;;30.62;47.10;101001.16;144992;565;6002;-86
2021/06/26 00:26:12;;;;;;;16.83;4.72;;;;;;;30.61;46.47;100994.94;144992;588;6002;-85
2021/06/26 00:28:38;;;;;;;16.87;4.90;;;;;;;30.62;46.68;100999.31;144992;567;6002;-84
2021/06/26 00:31:05;;;;;;;15.48;4.50;;;;;;;30.61;46.96;100994.94;144992;563;6002;-86
2021/06/26 00:33:35;;;;;;;18.50;4.80;;;;;;;30.61;46.52;100992.25;144992;587;6002;-86
2021/06/26 00:36:01;;;;;;;15.50;4.37;;;;;;;30.64;46.29;100992.09;144992;564;6002;-85
2021/06/26 00:38:28;;;;;;;17.17;4.32;;;;;;;30.64;46.57;100992.09;144992;579;6002;-85
2021/06/26 00:40:54;;;;;;;19.25;4.37;;;;;;;30.64;46.04;100993.88;144992;589;6002;-85
2021/06/26 00:43:20;;;;;;;15.30;4.22;;;;;;;30.63;45.61;100989.50;144992;578;6002;-86
2021/06/26 00:45:47;;;;;;;19.80;4.37;;;;;;;30.60;45.48;100984.28;144992;574;6002;-84
2021/06/26 00:48:14;;;;;;;16.62;4.53;;;;;;;30.59;45.45;100988.75;144991;564;6002;-87
2021/06/26 00:50:40;;;;;;;20.92;4.95;;;;;;;30.59;45.85;100986.09;144992;606;6002;-85
2021/06/26 00:53:11;;;;;;;18.25;4.68;;;;;;;30.58;45.75;100984.38;144992;578;6002;-85
2021/06/26 00:55:51;;;;;;;17.97;5.33;;;;;;;30.55;45.32;100984.53;144992;599;6002;-85
2021/06/26 00:58:24;;;;;;;24.40;7.82;;;;;;;30.50;45.14;100983.88;144992;599;6002;-84
2021/06/26 01:00:51;;;;;;;14.38;4.53;;;;;;;30.49;45.29;100988.34;144992;571;6002;-86
2021/06/26 01:03:18;;;;;;;17.67;4.75;;;;;;;30.49;45.51;100982.13;144992;659;6002;-84
2021/06/26 01:05:45;;;;;;;14.82;4.15;;;;;;;30.46;45.43;100980.47;144992;613;6002;-85
2021/06/26 01:08:11;;;;;;;22.27;4.78;;;;;;;30.45;45.29;100981.44;144992;578;6002;-85
2021/06/26 01:10:38;;;;;;;20.52;4.78;;;;;;;30.44;45.35;100968.97;144992;665;6002;-85
2021/06/26 01:13:05;;;;;;;17.58;4.55;;;;;;;30.44;45.71;100970.78;144992;569;6002;-85
2021/06/26 01:15:32;;;;;;;16.70;4.95;;;;;;;30.40;45.66;100962.06;144992;566;6002;-87
2021/06/26 01:17:59;;;;;;;17.00;5.00;;;;;;;30.38;45.12;100970.16;144992;581;6002;-84
2021/06/26 01:20:25;;;;;;;17.50;5.07;;;;;;;30.37;45.61;100972.87;144992;615;6002;-85
2021/06/26 01:22:55;;;;;;;18.80;4.90;;;;;;;30.34;45.21;100973.88;144992;662;6002;-85
2021/06/26 01:25:23;;;;;;;14.60;4.97;;;;;;;30.31;45.26;100975.84;144992;587;6002;-85
2021/06/26 01:27:52;;;;;;;21.62;5.25;;;;;;;30.30;45.24;100982.16;144992;591;6002;-83
2021/06/26 01:30:33;;;;;;;19.92;4.97;;;;;;;30.29;45.20;100986.66;144992;628;6002;-86
2021/06/26 01:33:01;;;;;;;18.95;4.70;;;;;;;30.27;45.52;100984.97;144992;578;6002;-85
2021/06/26 01:35:28;;;;;;;24.08;5.25;;;;;;;30.25;45.53;100984.19;144992;571;6002;-85
2021/06/26 01:37:57;;;;;;;21.10;5.18;;;;;;;30.20;45.03;100984.41;144992;611;6002;-84
2021/06/26 01:40:27;;;;;;;18.50;4.82;;;;;;;30.18;45.23;100983.63;144992;604;6002;-84
2021/06/26 01:42:55;;;;;;;15.05;4.95;;;;;;;30.21;45.24;100980.81;144992;583;6002;-85
2021/06/26 01:45:23;;;;;;;16.80;5.03;;;;;;;30.23;45.14;100975.38;144992;565;6002;-85
2021/06/26 01:47:51;;;;;;;20.00;4.75;;;;;;;30.24;44.69;100975.25;144992;571;6002;-86
2021/06/26 01:50:20;;;;;;;20.92;5.25;;;;;;;30.23;44.71;100976.22;144992;624;6002;-85
2021/06/26 01:52:48;;;;;;;20.70;5.20;;;;;;;30.22;45.13;100974.47;144992;618;6002;-85
2021/06/26 01:55:15;;;;;;;17.58;4.95;;;;;;;30.22;45.11;100974.47;144992;649;6002;-85
2021/06/26 01:57:43;;;;;;;19.50;4.72;;;;;;;30.21;45.17;100975.44;144992;635;6002;-85
2021/06/26 02:00:11;;;;;;;21.15;5.85;;;;;;;30.19;44.67;100978.19;144992;581;6002;-84
2021/06/26 02:02:39;;;;;;;22.08;5.70;;;;;;;30.15;44.87;100981.94;144992;608;6002;-84
2021/06/26 02:05:07;;;;;;;23.70;6.00;;;;;;;30.13;44.79;100986.53;144992;604;6002;-87
2021/06/26 02:07:34;;;;;;;22.65;5.60;;;;;;;30.16;45.30;100982.81;144992;569;6002;-86
2021/06/26 02:10:01;;;;;;;19.17;5.75;;;;;;;30.19;45.48;100977.31;144992;636;6002;-86
2021/06/26 02:12:28;;;;;;;18.33;5.55;;;;;;;30.18;45.55;100975.59;144992;592;6002;-85
2021/06/26 02:14:55;;;;;;;19.85;6.70;;;;;;;30.22;45.41;100977.16;144992;596;6002;-85
2021/06/26 02:17:22;;;;;;;21.58;5.75;;;;;;;30.22;45.30;100974.47;144992;574;6002;-85
2021/06/26 02:19:49;;;;;;;17.12;5.35;;;;;;;30.24;45.69;100980.63;144992;566;6002;-83
2021/06/26 02:22:16;;;;;;;18.75;6.55;;;;;;;30.25;45.27;100978.84;144992;599;6002;-83
2021/06/26 02:24:44;;;;;;;26.37;8.27;;;;;;;30.24;45.76;100982.44;144992;579;6002;-83
2021/06/26 02:27:10;;;;;;;28.98;7.12;;;;;;;30.17;45.73;100973.84;144992;592;6002;-85
2021/06/26 02:29:37;;;;;;;27.35;7.95;;;;;;;30.14;45.78;100990.06;144992;572;6002;-85
2021/06/26 02:32:04;;;;;;;27.65;7.25;;;;;;;30.14;46.00;100982.03;144992;583;6002;-84
2021/06/26 02:34:31;;;;;;;20.80;6.70;;;;;;;30.12;45.59;100982.09;144992;577;6002;-85
2021/06/26 02:36:58;;;;;;;22.83;7.75;;;;;;;30.11;45.58;100984.84;144992;565;6002;-85
2021/06/26 02:39:24;;;;;;;16.92;6.03;;;;;;;30.11;45.62;100983.03;144992;594;6003;-83
2021/06/26 02:41:52;;;;;;;22.23;6.80;;;;;;;30.10;45.79;100985.78;144992;564;6002;-83
2021/06/26 02:44:19;;;;;;;23.62;6.78;;;;;;;30.09;45.60;100978.72;144992;563;6002;-84
2021/06/26 02:46:46;;;;;;;17.55;5.50;;;;;;;30.10;45.86;100977.75;144992;571;6003;-85
2021/06/26 02:49:13;;;;;;;17.73;5.20;;;;;;;30.11;45.47;100984.84;144992;624;6002;-84
2021/06/26 02:51:39;;;;;;;23.75;5.60;;;;;;;30.11;45.54;100982.16;144992;686;6002;-88
2021/06/26 02:54:06;;;;;;;17.00;4.97;;;;;;;30.11;45.83;100984.84;144992;599;6002;-83
2021/06/26 02:56:32;;;;;;;19.75;5.50;;;;;;;30.09;45.29;100984.06;144992;635;6002;-85
2021/06/26 02:58:59;;;;;;;20.83;5.53;;;;;;;30.05;45.43;100983.34;144992;578;6002;-85
2021/06/26 03:01:25;;;;;;;15.35;4.37;;;;;;;30.01;45.88;100981.75;144992;592;6002;-85
2021/06/26 03:03:52;;;;;;;16.52;4.95;;;;;;;29.99;45.72;100989.84;144992;577;6002;-85
2021/06/26 03:06:18;;;;;;;18.77;5.55;;;;;;;29.98;45.71;100996.13;144992;588;6002;-86
2021/06/26 03:08:44;;;;;;;19.33;5.75;;;;;;;29.97;45.62;100997.09;144992;643;6002;-83
2021/06/26 03:11:11;;;;;;;23.02;5.78;;;;;;;29.88;45.60;100991.31;144992;606;6002;-84
2021/06/26 03:13:37;;;;;;;17.92;5.30;;;;;;;29.81;46.22;100999.63;144992;577;6002;-85
2021/06/26 03:16:04;;;;;;;27.30;6.15;;;;;;;29.78;46.14;100999.72;144992;573;6002;-84
2021/06/26 03:18:32;;;;;;;21.77;5.82;;;;;;;29.80;46.53;101005.03;144992;589;6002;-85
2021/06/26 03:20:59;;;;;;;18.15;5.25;;;;;;;29.81;46.53;101012.09;144992;576;6002;-85
2021/06/26 03:23:25;;;;;;;18.08;5.43;;;;;;;29.83;46.56;101013.78;144992;749;6002;-85
2021/06/26 03:25:52;;;;;;;15.75;5.37;;;;;;;29.84;46.50;101010.19;144992;653;6002;-85
2021/06/26 03:28:18;;;;;;;18.02;5.75;;;;;;;29.84;46.04;101007.50;144992;681;6002;-84
2021/06/26 03:30:45;;;;;;;24.10;5.78;;;;;;;29.84;46.43;101020.00;144992;598;6002;-85
2021/06/26 03:33:11;;;;;;;20.92;5.62;;;;;;;29.83;46.57;101020.94;144992;570;6002;-85
2021/06/26 03:35:38;;;;;;;22.73;5.57;;;;;;;29.82;46.53;101011.16;144992;585;6002;-85
2021/06/26 03:38:04;;;;;;;21.55;6.22;;;;;;;29.82;46.43;101011.16;144992;565;6002;-85
2021/06/26 03:40:31;;;;;;;20.58;5.75;;;;;;;29.80;46.03;101016.59;144992;580;6002;-86
2021/06/26 03:42:58;;;;;;;19.92;5.70;;;;;;;29.80;46.65;101024.63;144992;563;6002;-84
2021/06/26 03:45:24;;;;;;;27.20;5.75;;;;;;;29.80;46.55;101018.41;144992;711;6002;-86
2021/06/26 03:47:51;;;;;;;23.90;6.32;;;;;;;29.79;46.61;101027.37;144992;604;6002;-84
2021/06/26 03:50:19;;;;;;;25.48;5.72;;;;;;;29.78;46.55;101015.78;144992;592;6002;-85
2021/06/26 03:52:46;;;;;;;20.33;5.87;;;;;;;29.81;46.60;101009.44;144992;599;6002;-85
2021/06/26 03:55:14;;;;;;;26.10;5.50;;;;;;;29.86;46.32;101015.47;144992;649;6002;-85
2021/06/26 03:57:41;;;;;;;20.75;5.35;;;;;;;29.86;46.06;101018.12;144992;574;6002;-85
2021/06/26 04:00:08;;;;;;;21.15;5.68;;;;;;;29.87;45.82;101014.50;144992;593;6002;-85
2021/06/26 04:02:35;;;;;;;30.25;5.75;;;;;;;29.85;46.18;101009.22;144992;564;6002;-85
2021/06/26 04:05:02;;;;;;;23.52;5.32;;;;;;;29.84;45.81;101015.53;144992;576;6002;-87
2021/06/26 04:07:29;;;;;;;22.55;5.40;;;;;;;29.82;45.56;101016.53;144992;579;6002;-85
2021/06/26 04:09:55;;;;;;;28.35;5.78;;;;;;;29.79;45.79;101022.88;144992;594;6002;-85
2021/06/26 04:12:22;;;;;;;36.33;6.18;;;;;;;29.79;45.58;101017.53;144992;587;6002;-85
2021/06/26 04:14:48;;;;;;;19.92;5.85;;;;;;;29.83;45.74;101020.94;144992;563;6002;-84
2021/06/26 04:17:15;;;;;;;26.05;6.00;;;;;;;29.87;45.44;101027.00;144992;580;6002;-82
2021/06/26 04:19:43;;;;;;;22.02;4.87;;;;;;;29.94;45.43;101032.03;144992;657;6002;-83
2021/06/26 04:22:11;;;;;;;20.88;5.25;;;;;;;30.02;45.32;101032.53;144992;594;6002;-87
2021/06/26 04:24:40;;;;;;;21.17;5.65;;;;;;;30.11;45.40;101025.84;144992;574;6002;-84
2021/06/26 04:27:07;;;;;;;19.65;5.10;;;;;;;30.14;44.87;101035.56;144992;566;6002;-85
2021/06/26 04:29:33;;;;;;;22.27;5.32;;;;;;;30.15;45.20;101032.81;144992;668;6002;-86
2021/06/26 04:32:00;;;;;;;22.73;5.40;;;;;;;30.16;44.86;101037.25;144992;571;6002;-85
2021/06/26 04:34:26;;;;;;;27.33;5.82;;;;;;;30.15;44.75;101030.13;144992;587;6002;-85
2021/06/26 04:36:53;;;;;;;18.87;4.47;;;;;;;30.15;44.84;101035.50;144991;581;6002;-86
2021/06/26 04:39:20;;;;;;;24.67;5.65;;;;;;;30.17;44.84;101036.28;144992;647;6002;-83
2021/06/26 04:41:47;;;;;;;25.23;5.32;;;;;;;30.14;42.23;101023.03;144992;647;6002;-85
2021/06/26 04:44:16;;;;;;;18.37;5.45;;;;;;;30.17;45.22;101030.06;144992;646;6002;-87
2021/06/26 04:46:43;;;;;;;24.80;5.82;;;;;;;30.28;45.01;101038.44;144992;685;6002;-84
2021/06/26 04:49:10;;;;;;;28.60;5.72;;;;;;;30.35;44.96;101033.66;144992;630;6002;-85
2021/06/26 04:51:37;;;;;;;20.73;6.55;;;;;;;30.35;44.46;101034.53;144992;564;6002;-86
2021/06/26 04:54:05;;;;;;;23.30;6.15;;;;;;;30.25;42.71;101032.38;144992;644;6002;-85
2021/06/26 04:56:32;;;;;;;30.75;6.90;;;;;;;30.21;45.15;101035.19;144992;585;6002;-85
2021/06/26 04:58:58;;;;;;;27.42;6.12;;;;;;;30.28;44.51;101038.44;144992;622;6002;-86
2021/06/26 05:01:25;;;;;;;26.20;6.10;;;;;;;30.35;44.90;101036.34;144992;607;6002;-85
2021/06/26 05:03:51;;;;;;;30.12;7.18;;;;;;;30.44;44.24;101043.09;144992;591;6002;-86
2021/06/26 05:06:18;;;;;;;30.65;6.97;;;;;;;30.44;44.57;101035.06;144992;594;6002;-86
2021/06/26 05:08:44;;;;;;;27.83;7.37;;;;;;;30.49;43.92;101041.06;144992;564;6002;-85
2021/06/26 05:11:11;;;;;;;26.85;7.40;;;;;;;30.53;44.27;101037.31;144992;624;6002;-85
2021/06/26 05:13:37;;;;;;;26.65;8.23;;;;;;;30.59;43.92;101036.97;144992;579;6002;-84
2021/06/26 05:16:04;;;;;;;29.58;8.18;;;;;;;30.61;43.57;101047.63;144992;596;6002;-81
2021/06/26 05:18:31;;;;;;;33.35;8.63;;;;;;;30.60;42.04;101044.09;144992;588;6002;-84
2021/06/26 05:20:57;;;;;;;22.70;8.52;;;;;;;30.31;41.65;101037.44;144992;593;6002;-83
2021/06/26 05:23:24;;;;;;;32.28;8.93;;;;;;;30.38;42.90;101037.13;144992;591;6002;-85
2021/06/26 05:25:51;;;;;;;37.17;8.07;;;;;;;30.28;43.52;101032.22;144992;591;6002;-84
2021/06/26 05:28:18;;;;;;;27.50;9.80;;;;;;;30.42;43.68;101045.84;144992;607;6002;-83
2021/06/26 05:30:45;;;;;;;28.50;9.02;;;;;;;30.54;44.13;101041.69;144992;591;6010;-84
2021/06/26 05:33:12;;;;;;;31.80;9.00;;;;;;;30.59;43.51;101047.69;144992;599;6002;-85
2021/06/26 05:35:43;;;;;;;29.55;8.65;;;;;;;30.69;43.32;101040.94;144992;599;6002;-81
2021/06/26 05:38:09;;;;;;;32.22;7.87;;;;;;;30.75;43.94;101035.28;144992;572;6002;-83
2021/06/26 05:40:36;;;;;;;32.25;7.15;;;;;;;30.47;45.86;101045.62;144992;622;6002;-83
2021/06/26 05:43:03;;;;;;;33.60;7.65;;;;;;;30.62;45.00;101044.88;144992;569;6002;-83
2021/06/26 05:45:30;;;;;;;27.67;6.90;;;;;;;30.56;46.59;101047.88;144992;578;6002;-86
2021/06/26 05:47:56;;;;;;;26.73;7.32;;;;;;;30.46;46.34;101047.44;144992;592;6002;-85
2021/06/26 05:50:23;;;;;;;23.95;6.95;;;;;;;30.55;45.61;101051.47;144992;604;6002;-84
2021/06/26 05:52:52;;;;;;;23.12;6.57;;;;;;;30.58;47.21;101051.34;144992;572;6002;-85
2021/06/26 05:55:19;;;;;;;25.73;6.93;;;;;;;30.54;47.80;101049.72;144992;587;6002;-86
2021/06/26 05:57:46;;;;;;;25.42;6.60;;;;;;;30.50;46.82;101058.88;144992;612;6002;-85
2021/06/26 06:00:15;;;;;;;25.80;6.47;;;;;;;30.49;46.89;101057.13;144992;570;6002;-85
2021/06/26 06:02:42;;;;;;;25.67;6.75;;;;;;;30.54;47.80;101053.31;144992;588;6002;-86
2021/06/26 06:05:09;;;;;;;22.60;6.22;;;;;;;30.63;47.03;101053.78;144992;640;6002;-84
2021/06/26 06:07:37;;;;;;;23.87;6.45;;;;;;;30.76;46.80;101057.59;144992;607;6002;-84
2021/06/26 06:10:05;;;;;;;22.52;6.20;;;;;;;30.80;46.17;101050.25;144992;573;6002;-85
2021/06/26 06:12:36;;;;;;;22.58;6.40;;;;;;;30.86;46.36;101048.16;144991;667;6002;-83
2021/06/26 06:15:04;;;;;;;25.12;6.53;;;;;;;30.95;45.88;101051.31;144992;650;6002;-84
2021/06/26 06:17:31;;;;;;;23.80;6.32;;;;;;;31.09;46.44;101038.97;144992;602;6002;-83
2021/06/26 06:19:59;;;;;;;26.23;6.57;;;;;;;31.21;45.97;101039.28;144993;616;6002;-86
2021/06/26 06:22:26;;;;;;;20.62;6.37;;;;;;;31.32;45.99;101031.53;144992;566;6002;-85
2021/06/26 06:24:52;;;;;;;25.02;6.05;;;;;;;31.42;45.66;101037.31;144993;607;6002;-84
2021/06/26 06:27:18;;;;;;;26.17;9.48;;;;;;;31.57;45.38;101027.59;144992;579;6002;-86
2021/06/26 06:29:45;;;;;;;23.30;8.30;;;;;;;31.59;42.73;101023.91;144993;582;6002;-84
2021/06/26 06:32:11;;;;;;;25.10;9.15;;;;;;;31.64;45.07;101021.81;144993;564;6002;-85
2021/06/26 06:34:39;;;;;;;34.35;10.95;;;;;;;31.71;44.84;101027.72;144993;563;6002;-87
2021/06/26 06:37:05;;;;;;;29.80;9.73;;;;;;;31.76;43.40;101020.28;144993;606;6003;-85
2021/06/26 06:39:32;;;;;;;24.60;10.30;;;;;;;31.89;44.61;101025.84;144993;704;6002;-84
2021/06/26 06:41:59;;;;;;;31.75;8.32;;;;;;;32.02;44.70;101020.66;144993;579;6002;-85
2021/06/26 06:44:25;;;;;;;27.20;9.60;;;;;;;32.12;44.31;101011.19;144993;624;6002;-84
2021/06/26 06:46:51;;;;;;;26.98;9.07;;;;;;;32.23;44.43;101015.94;144993;569;6002;-85
2021/06/26 06:49:18;;;;;;;27.40;9.95;;;;;;;32.32;44.66;101001.12;144993;634;6002;-85
2021/06/26 06:51:44;;;;;;;24.45;8.95;;;;;;;32.43;43.91;101005.88;144992;650;6002;-85
2021/06/26 06:54:11;;;;;;;35.03;9.13;;;;;;;32.49;44.24;100998.31;144992;662;6002;-86
2021/06/26 06:56:37;;;;;;;23.45;5.20;;;;;;;32.51;37.74;100996.41;144992;587;6002;-85
2021/06/26 06:59:04;;;;;;;25.77;5.25;;;;;;;32.57;37.94;100991.66;144992;688;6002;-84
2021/06/26 07:01:30;;;;;;;19.62;4.25;;;;;;;32.66;40.59;100988.44;144992;717;6002;-86
2021/06/26 07:03:57;;;;;;;18.02;4.00;;;;;;;32.71;35.35;100986.37;144992;589;6002;-85
2021/06/26 07:06:24;;;;;;;17.62;3.67;;;;;;;32.78;36.09;100985.03;144993;565;6002;-86
2021/06/26 07:08:52;;;;;;;13.35;3.33;;;;;;;32.84;34.30;100983.81;144993;569;6002;-86
2021/06/26 07:11:18;;;;;;;13.35;3.05;;;;;;;32.94;32.93;100976.91;144993;723;6002;-86
2021/06/26 07:13:44;;;;;;;18.00;3.22;;;;;;;32.99;34.44;100974.81;144993;698;6002;-85
2021/06/26 07:16:12;;;;;;;16.83;3.65;;;;;;;33.08;37.85;100979.63;144993;579;6002;-86
2021/06/26 07:18:38;;;;;;;18.67;3.50;;;;;;;33.16;34.50;100981.84;144993;707;6002;-87
2021/06/26 07:21:05;;;;;;;13.27;2.95;;;;;;;33.25;32.72;100973.25;144993;723;6002;-85
2021/06/26 07:23:32;;;;;;;12.88;3.22;;;;;;;33.29;29.89;100982.00;144993;707;6002;-85
2021/06/26 07:25:59;;;;;;;14.38;3.05;;;;;;;33.32;29.51;100989.03;144993;703;6002;-85
2021/06/26 07:28:25;;;;;;;15.20;3.17;;;;;;;33.40;33.35;100982.19;144993;580;6002;-85
2021/06/26 07:30:52;;;;;;;9.35;2.20;;;;;;;33.43;29.21;100975.75;144993;570;6002;-84
2021/06/26 07:33:18;;;;;;;16.58;2.92;;;;;;;33.52;29.14;100979.69;144993;573;6002;-85
2021/06/26 07:35:45;;;;;;;14.68;3.08;;;;;;;33.61;28.51;100979.09;144993;569;6002;-84
2021/06/26 07:38:11;;;;;;;15.40;3.05;;;;;;;33.74;28.60;100990.00;144993;597;6002;-85
2021/06/26 07:40:39;;;;;;;19.10;3.40;;;;;;;33.90;34.74;100987.19;144993;575;6002;-83
2021/06/26 07:43:06;;;;;;;16.77;3.58;;;;;;;34.05;34.45;100985.34;144993;563;6002;-86
2021/06/26 07:45:32;;;;;;;15.15;3.20;;;;;;;34.12;27.98;100976.78;144993;583;6002;-84
2021/06/26 07:47:59;;;;;;;12.65;3.20;;;;;;;34.20;30.05;100973.53;144993;609;6002;-84
2021/06/26 07:50:25;;;;;;;15.50;2.83;;;;;;;34.28;31.37;100973.97;144993;569;6002;-86
2021/06/26 07:52:52;;;;;;;16.37;4.35;;;;;;;34.31;27.83;100975.56;144993;585;6002;-86
2021/06/26 07:55:18;;;;;;;15.32;4.70;;;;;;;34.43;28.46;100973.91;144993;603;6002;-83
2021/06/26 07:57:45;;;;;;;18.25;5.10;;;;;;;34.27;37.30;100980.31;144994;582;5002;-85
2021/06/26 08:00:12;;;;;;;17.05;5.72;;;;;;;34.04;38.56;100986.31;144994;571;5002;-85
2021/06/26 08:02:39;;;;;;;24.70;6.47;;;;;;;33.47;43.55;100985.34;144994;599;5002;-86
2021/06/26 08:05:06;;;;;;;21.25;6.75;;;;;;;33.17;45.81;100985.41;144994;577;5002;-85
2021/06/26 08:07:33;;;;;;;24.30;6.75;;;;;;;33.08;45.93;100984.16;144994;624;5002;-86
2021/06/26 08:09:59;;;;;;;22.27;7.07;;;;;;;33.15;45.45;100977.41;144994;575;5002;-86
2021/06/26 08:12:26;;;;;;;21.83;7.05;;;;;;;33.31;42.24;100984.59;144994;742;5002;-84
2021/06/26 08:14:53;;;;;;;21.02;7.55;;;;;;;33.53;42.68;100979.59;144994;566;5002;-89
2021/06/26 08:17:20;;;;;;;21.23;6.95;;;;;;;33.43;43.57;100973.94;144994;609;5002;-86
2021/06/26 08:19:46;;;;;;;19.58;6.22;;;;;;;33.47;44.39;100982.66;144994;597;5002;-86
2021/06/26 08:22:12;;;;;;;20.48;6.47;;;;;;;33.46;44.75;100980.09;144994;575;5002;-88
2021/06/26 08:24:42;;;;;;;24.52;6.43;;;;;;;33.27;48.45;100978.53;144994;585;5002;-86
2021/06/26 08:27:09;;;;;;;20.60;6.30;;;;;;;33.21;45.19;100979.78;144994;569;5002;-85
2021/06/26 08:29:40;;;;;;;21.92;5.80;;;;;;;32.98;45.19;100970.41;144994;578;5002;-85
2021/06/26 08:32:14;;;;;;;19.50;6.25;;;;;;;32.86;45.85;100972.00;144994;605;5002;-86
2021/06/26 08:34:43;;;;;;;18.05;6.00;;;;;;;32.62;47.01;100970.75;144994;577;5002;-86
2021/06/26 08:37:09;;;;;;;18.05;6.20;;;;;;;32.95;46.59;100958.97;144994;630;5002;-85
2021/06/26 08:39:36;;;;;;;20.95;7.32;;;;;;;33.21;45.21;100970.84;144994;576;5002;-85
2021/06/26 08:42:03;;;;;;;22.33;6.55;;;;;;;33.29;45.73;100965.00;144994;622;5002;-87
2021/06/26 08:44:32;;;;;;;19.98;6.22;;;;;;;33.33;44.91;100970.09;144994;570;5002;-83
2021/06/26 08:47:00;;;;;;;20.05;7.03;;;;;;;33.34;45.00;100963.72;144993;582;5002;-84
2021/06/26 08:49:26;;;;;;;22.13;6.95;;;;;;;33.13;47.96;100962.34;144994;565;5002;-84
2021/06/26 08:51:54;;;;;;;26.12;6.05;;;;;;;33.42;46.13;100965.94;144994;611;5002;-84
2021/06/26 08:54:22;;;;;;;22.87;6.75;;;;;;;33.40;45.12;100957.97;144994;564;5002;-85
2021/06/26 08:56:50;;;;;;;22.95;6.07;;;;;;;33.06;43.13;100954.66;144994;655;5002;-84
2021/06/26 08:59:17;;;;;;;22.83;6.55;;;;;;;32.92;44.21;100949.25;144994;572;5002;-88
2021/06/26 09:01:49;;;;;;;22.48;5.32;;;;;;;33.03;41.26;100952.16;144994;582;5002;-81
2021/06/26 09:04:19;;;;;;;22.83;5.75;;;;;;;32.93;41.46;100950.13;144994;606;5002;-84
2021/06/26 09:06:57;;;;;;;22.25;6.32;;;;;;;32.88;40.14;100948.59;144994;605;5002;-84
2021/06/26 09:09:35;;;;;;;22.60;6.22;;;;;;;32.96;41.18;100949.94;144994;598;5002;-84
2021/06/26 09:12:06;;;;;;;22.15;6.00;;;;;;;32.83;41.45;100957.88;144994;583;5002;-86
2021/06/26 09:14:34;;;;;;;19.95;5.80;;;;;;;32.76;40.71;100954.69;144994;618;5002;-86
2021/06/26 09:17:03;;;;;;;19.75;5.57;;;;;;;32.55;42.16;100941.56;144994;564;5002;-84
2021/06/26 09:19:33;;;;;;;22.73;6.43;;;;;;;32.64;41.99;100941.97;144994;592;5010;-86
2021/06/26 09:22:10;;;;;;;22.02;6.50;;;;;;;32.60;42.33;100935.91;144993;636;5002;-87
2021/06/26 09:24:46;;;;;;;23.33;6.15;;;;;;;32.81;42.96;100933.78;144994;589;5002;-84
2021/06/26 09:27:17;;;;;;;24.77;6.12;;;;;;;32.92;42.43;100929.59;144994;585;5002;-86
2021/06/26 09:29:48;;;;;;;23.48;6.07;;;;;;;32.88;41.54;100937.84;144994;590;5002;-84
2021/06/26 09:32:25;;;;;;;21.27;5.85;;;;;;;32.65;42.39;100932.97;144994;595;5002;-86
2021/06/26 09:34:53;;;;;;;18.77;5.55;;;;;;;32.54;42.49;100930.88;144994;580;5002;-84
2021/06/26 09:37:25;;;;;;;22.73;6.07;;;;;;;32.52;41.33;100928.28;144994;589;5002;-84
2021/06/26 09:39:57;;;;;;;22.23;6.00;;;;;;;32.55;42.22;100930.81;144994;553;5002;-87
2021/06/26 09:42:29;;;;;;;15.98;4.97;;;;;;;32.60;42.97;100932.37;144994;687;5002;-83
2021/06/26 09:45:22;;;;;;;17.83;5.53;;;;;;;32.89;41.60;100930.62;144994;596;5002;-87
2021/06/26 09:47:50;;;;;;;19.98;5.75;;;;;;;32.78;41.50;100927.72;144994;647;5002;-85
2021/06/26 09:50:24;;;;;;;23.58;5.80;;;;;;;32.84;40.76;100925.53;144994;595;5002;-86
2021/06/26 09:52:54;;;;;;;21.85;5.35;;;;;;;32.86;38.64;100928.13;144994;570;5002;-85
2021/06/26 09:55:26;;;;;;;21.45;5.65;;;;;;;32.77;40.20;100912.56;144994;596;5002;-85
2021/06/26 09:57:56;;;;;;;22.05;5.55;;;;;;;32.76;38.43;100918.91;144994;577;5002;-85
2021/06/26 10:00:25;;;;;;;21.62;5.85;;;;;;;32.89;40.16;100918.03;144994;570;5002;-84
2021/06/26 10:02:52;;;;;;;23.02;6.12;;;;;;;32.81;38.86;100923.03;144994;590;5002;-84
2021/06/26 10:05:19;;;;;;;18.67;5.12;;;;;;;32.80;37.32;100915.91;144994;580;5002;-85
2021/06/26 10:07:47;;;;;;;21.62;6.60;;;;;;;32.99;39.86;100915.66;144994;598;5002;-85
2021/06/26 10:10:19;;;;;;;22.80;4.75;;;;;;;33.05;37.85;100909.03;144994;595;5002;-85
2021/06/26 10:12:47;;;;;;;25.77;5.82;;;;;;;33.00;37.56;100905.78;144994;607;5002;-86
2021/06/26 10:15:15;;;;;;;26.40;5.75;;;;;;;33.19;38.42;100911.78;144994;577;5002;-85
2021/06/26 10:17:41;;;;;;;21.75;5.18;;;;;;;33.47;38.06;100912.69;144994;583;5002;-85
2021/06/26 10:20:14;;;;;;;20.55;5.75;;;;;;;33.41;36.99;100892.44;144994;570;5011;-86
2021/06/26 10:22:48;;;;;;;23.58;7.78;;;;;;;33.62;37.61;100897.41;144994;643;5002;-86
2021/06/26 10:25:15;;;;;;;19.75;4.90;;;;;;;33.94;36.71;100889.94;144994;597;5002;-84
2021/06/26 10:27:43;;;;;;;12.07;4.53;;;;;;;33.95;36.86;100886.31;144993;570;5002;-85
2021/06/26 10:30:18;;;;;;;24.70;4.80;;;;;;;34.01;36.33;100887.72;144994;596;5002;-84
2021/06/26 10:33:01;;;;;;;24.40;5.40;;;;;;;33.90;36.51;100885.75;144994;576;5002;-84
2021/06/26 10:35:31;;;;;;;15.45;4.68;;;;;;;33.82;35.15;100889.91;144994;596;5003;-84
2021/06/26 10:38:12;;;;;;;17.52;4.25;;;;;;;33.73;35.56;100886.00;144994;578;5002;-83
2021/06/26 10:40:44;;;;;;;26.00;5.20;;;;;;;33.76;35.17;100892.03;144994;585;5002;-85
2021/06/26 10:43:29;;;;;;;15.27;4.00;;;;;;;33.78;33.83;100886.56;144994;564;5002;-85
2021/06/26 10:46:15;;;;;;;28.58;5.07;;;;;;;33.76;35.29;100885.81;144994;565;5002;-87
2021/06/26 10:48:54;;;;;;;19.27;5.22;;;;;;;33.92;34.80;100882.97;144994;567;5002;-84
2021/06/26 10:51:31;;;;;;;14.10;4.35;;;;;;;33.72;36.87;100893.19;144994;630;5002;-88
2021/06/26 10:54:15;;;;;;;16.30;4.80;;;;;;;33.77;39.01;100879.44;144994;607;5002;-87
2021/06/26 10:56:46;;;;;;;19.77;5.35;;;;;;;33.91;37.79;100875.84;144994;669;5002;-86
2021/06/26 10:59:16;;;;;;;18.00;4.90;;;;;;;33.93;37.11;100874.78;144994;597;5002;-87
2021/06/26 11:02:00;;;;;;;22.25;5.15;;;;;;;34.13;36.52;100880.66;144994;604;5002;-84
2021/06/26 11:04:27;;;;;;;17.35;4.50;;;;;;;34.29;35.89;100875.13;144994;574;5002;-85
2021/06/26 11:07:08;;;;;;;19.98;4.12;;;;;;;34.26;35.75;100873.50;144994;598;5002;-85
2021/06/26 11:09:37;;;;;;;20.90;4.65;;;;;;;34.39;35.82;100878.91;144994;682;5002;-86
2021/06/26 11:12:18;;;;;;;21.15;5.43;;;;;;;34.37;32.84;100861.16;144994;570;5002;-85
2021/06/26 11:14:57;;;;;;;18.40;4.93;;;;;;;34.50;34.89;100867.41;144994;611;5002;-84
2021/06/26 11:17:36;;;;;;;15.68;4.47;;;;;;;34.51;29.83;100864.59;144994;570;5002;-85
2021/06/26 11:20:08;;;;;;;21.05;5.05;;;;;;;34.69;27.83;100862.47;144994;593;5002;-85
2021/06/26 11:22:34;;;;;;;16.77;4.57;;;;;;;34.99;25.36;100864.00;144994;582;5002;-86
2021/06/26 11:25:02;;;;;;;23.92;4.60;;;;;;;35.30;28.80;100847.47;144994;565;5002;-86
2021/06/26 11:27:31;;;;;;;14.20;3.58;;;;;;;35.56;24.63;100838.34;144994;659;5002;-84
2021/06/26 11:30:04;;;;;;;17.83;3.25;;;;;;;35.83;21.11;100831.91;144994;616;5002;-85